sensor_id;sensor_type;location;lat;lon;timestamp;P1;durP1;ratioP1;P2;durP2;ratioP2
7306;SDS011;3694;48.732;9.248;2023-05-20T00:02:20;3.73;;;3.43;;
7306;SDS011;3694;48.732;9.248;2023-05-20T00:04:45;4.40;;;4.00;;
7306;SDS011;3694;48.732;9.248;2023-05-20T00:07:11;3.90;;;3.13;;
7306;SDS011;3694;48.732;9.248;2023-05-20T00:09:37;4.37;;;3.73;;
7306;SDS011;3694;48.732;9.248;2023-05-20T00:12:03;4.20;;;3.70;;
7306;SDS011;3694;48.732;9.248;2023-05-20T00:14:30;4.43;;;3.70;;
7306;SDS011;3694;48.732;9.248;2023-05-20T00:16:55;6.00;;;3.80;;
7306;SDS011;3694;48.732;9.248;2023-05-20T00:19:21;4.33;;;3.93;;
7306;SDS011;3694;48.732;9.248;2023-05-20T00:21:46;5.03;;;3.93;;
7306;SDS011;3694;48.732;9.248;2023-05-20T00:24:12;3.90;;;3.60;;
7306;SDS011;3694;48.732;9.248;2023-05-20T00:26:37;4.73;;;4.30;;
7306;SDS011;3694;48.732;9.248;2023-05-20T00:29:03;5.63;;;4.37;;
7306;SDS011;3694;48.732;9.248;2023-05-20T00:31:28;5.03;;;4.03;;
7306;SDS011;3694;48.732;9.248;2023-05-20T00:33:54;6.10;;;4.67;;
7306;SDS011;3694;48.732;9.248;2023-05-20T00:36:19;5.47;;;4.57;;
7306;SDS011;3694;48.732;9.248;2023-05-20T00:38:45;5.90;;;4.83;;
7306;SDS011;3694;48.732;9.248;2023-05-20T00:41:11;5.93;;;4.97;;
7306;SDS011;3694;48.732;9.248;2023-05-20T00:43:36;7.57;;;4.80;;
7306;SDS011;3694;48.732;9.248;2023-05-20T00:46:02;6.10;;;4.57;;
7306;SDS011;3694;48.732;9.248;2023-05-20T00:48:29;4.77;;;4.30;;
7306;SDS011;3694;48.732;9.248;2023-05-20T00:51:00;4.83;;;4.33;;
7306;SDS011;3694;48.732;9.248;2023-05-20T00:53:27;4.83;;;4.43;;
7306;SDS011;3694;48.732;9.248;2023-05-20T00:55:52;4.70;;;4.30;;
7306;SDS011;3694;48.732;9.248;2023-05-20T00:58:18;5.67;;;4.60;;
7306;SDS011;3694;48.732;9.248;2023-05-20T01:00:43;5.33;;;4.60;;
7306;SDS011;3694;48.732;9.248;2023-05-20T01:03:09;5.97;;;4.53;;
7306;SDS011;3694;48.732;9.248;2023-05-20T01:05:35;5.13;;;4.63;;
7306;SDS011;3694;48.732;9.248;2023-05-20T01:08:01;4.93;;;4.47;;
7306;SDS011;3694;48.732;9.248;2023-05-20T01:10:27;5.30;;;4.80;;
7306;SDS011;3694;48.732;9.248;2023-05-20T01:12:56;5.50;;;4.93;;
7306;SDS011;3694;48.732;9.248;2023-05-20T01:15:26;5.00;;;4.50;;
7306;SDS011;3694;48.732;9.248;2023-05-20T01:17:54;5.30;;;4.13;;
7306;SDS011;3694;48.732;9.248;2023-05-20T01:20:25;4.73;;;4.27;;
7306;SDS011;3694;48.732;9.248;2023-05-20T01:22:54;4.90;;;4.30;;
7306;SDS011;3694;48.732;9.248;2023-05-20T01:25:21;5.27;;;4.27;;
7306;SDS011;3694;48.732;9.248;2023-05-20T01:27:48;5.13;;;4.50;;
7306;SDS011;3694;48.732;9.248;2023-05-20T01:30:16;4.90;;;4.30;;
7306;SDS011;3694;48.732;9.248;2023-05-20T01:32:44;5.27;;;4.27;;
7306;SDS011;3694;48.732;9.248;2023-05-20T01:35:12;6.30;;;4.77;;
7306;SDS011;3694;48.732;9.248;2023-05-20T01:37:39;4.57;;;3.90;;
7306;SDS011;3694;48.732;9.248;2023-05-20T01:40:07;4.50;;;4.10;;
7306;SDS011;3694;48.732;9.248;2023-05-20T01:42:33;4.97;;;4.33;;
7306;SDS011;3694;48.732;9.248;2023-05-20T01:45:00;4.40;;;4.00;;
7306;SDS011;3694;48.732;9.248;2023-05-20T01:47:26;5.27;;;4.27;;
7306;SDS011;3694;48.732;9.248;2023-05-20T01:49:52;4.43;;;4.03;;
7306;SDS011;3694;48.732;9.248;2023-05-20T01:52:18;4.10;;;3.70;;
7306;SDS011;3694;48.732;9.248;2023-05-20T01:54:44;4.43;;;4.03;;
7306;SDS011;3694;48.732;9.248;2023-05-20T01:57:15;5.87;;;4.30;;
7306;SDS011;3694;48.732;9.248;2023-05-20T01:59:44;4.93;;;4.43;;
7306;SDS011;3694;48.732;9.248;2023-05-20T02:02:10;4.50;;;4.07;;
7306;SDS011;3694;48.732;9.248;2023-05-20T02:04:36;4.47;;;3.93;;
7306;SDS011;3694;48.732;9.248;2023-05-20T02:07:01;4.97;;;4.47;;
7306;SDS011;3694;48.732;9.248;2023-05-20T02:09:27;4.83;;;4.40;;
7306;SDS011;3694;48.732;9.248;2023-05-20T02:11:53;6.50;;;4.23;;
7306;SDS011;3694;48.732;9.248;2023-05-20T02:14:18;7.20;;;4.27;;
7306;SDS011;3694;48.732;9.248;2023-05-20T02:16:45;5.67;;;4.50;;
7306;SDS011;3694;48.732;9.248;2023-05-20T02:19:11;5.00;;;4.60;;
7306;SDS011;3694;48.732;9.248;2023-05-20T02:21:40;4.67;;;4.27;;
7306;SDS011;3694;48.732;9.248;2023-05-20T02:24:06;5.20;;;4.70;;
7306;SDS011;3694;48.732;9.248;2023-05-20T02:26:32;5.73;;;4.80;;
7306;SDS011;3694;48.732;9.248;2023-05-20T02:28:58;4.60;;;4.20;;
7306;SDS011;3694;48.732;9.248;2023-05-20T02:31:24;4.30;;;3.93;;
7306;SDS011;3694;48.732;9.248;2023-05-20T02:33:50;5.27;;;4.77;;
7306;SDS011;3694;48.732;9.248;2023-05-20T02:36:15;5.40;;;4.90;;
7306;SDS011;3694;48.732;9.248;2023-05-20T02:38:41;5.03;;;4.60;;
7306;SDS011;3694;48.732;9.248;2023-05-20T02:41:07;4.83;;;4.43;;
7306;SDS011;3694;48.732;9.248;2023-05-20T02:43:33;5.10;;;4.60;;
7306;SDS011;3694;48.732;9.248;2023-05-20T02:46:00;5.40;;;4.90;;
7306;SDS011;3694;48.732;9.248;2023-05-20T02:48:26;5.40;;;4.90;;
7306;SDS011;3694;48.732;9.248;2023-05-20T02:50:52;4.50;;;4.10;;
7306;SDS011;3694;48.732;9.248;2023-05-20T02:53:17;5.57;;;4.63;;
7306;SDS011;3694;48.732;9.248;2023-05-20T02:55:44;7.73;;;4.60;;
7306;SDS011;3694;48.732;9.248;2023-05-20T02:58:11;5.53;;;5.03;;
7306;SDS011;3694;48.732;9.248;2023-05-20T03:00:37;5.70;;;4.97;;
7306;SDS011;3694;48.732;9.248;2023-05-20T03:03:04;5.10;;;4.70;;
7306;SDS011;3694;48.732;9.248;2023-05-20T03:05:31;4.90;;;4.50;;
7306;SDS011;3694;48.732;9.248;2023-05-20T03:07:57;5.70;;;4.77;;
7306;SDS011;3694;48.732;9.248;2023-05-20T03:10:23;5.30;;;4.83;;
7306;SDS011;3694;48.732;9.248;2023-05-20T03:12:48;7.67;;;4.67;;
7306;SDS011;3694;48.732;9.248;2023-05-20T03:15:14;5.60;;;5.10;;
7306;SDS011;3694;48.732;9.248;2023-05-20T03:17:40;5.33;;;4.90;;
7306;SDS011;3694;48.732;9.248;2023-05-20T03:20:05;5.50;;;5.00;;
7306;SDS011;3694;48.732;9.248;2023-05-20T03:22:32;5.27;;;4.73;;
7306;SDS011;3694;48.732;9.248;2023-05-20T03:24:57;5.97;;;5.07;;
7306;SDS011;3694;48.732;9.248;2023-05-20T03:27:24;5.50;;;5.00;;
7306;SDS011;3694;48.732;9.248;2023-05-20T03:29:50;5.60;;;5.00;;
7306;SDS011;3694;48.732;9.248;2023-05-20T03:32:18;6.23;;;5.10;;
7306;SDS011;3694;48.732;9.248;2023-05-20T03:34:44;5.60;;;5.10;;
7306;SDS011;3694;48.732;9.248;2023-05-20T03:37:10;6.13;;;5.53;;
7306;SDS011;3694;48.732;9.248;2023-05-20T03:39:36;5.87;;;5.27;;
7306;SDS011;3694;48.732;9.248;2023-05-20T03:42:01;5.80;;;5.20;;
7306;SDS011;3694;48.732;9.248;2023-05-20T03:44:27;5.57;;;5.07;;
7306;SDS011;3694;48.732;9.248;2023-05-20T03:46:52;6.63;;;6.03;;
7306;SDS011;3694;48.732;9.248;2023-05-20T03:49:18;6.37;;;5.47;;
7306;SDS011;3694;48.732;9.248;2023-05-20T03:51:43;5.97;;;5.47;;
7306;SDS011;3694;48.732;9.248;2023-05-20T03:54:09;6.20;;;5.63;;
7306;SDS011;3694;48.732;9.248;2023-05-20T03:56:34;6.07;;;5.47;;
7306;SDS011;3694;48.732;9.248;2023-05-20T03:59:00;5.73;;;5.20;;
7306;SDS011;3694;48.732;9.248;2023-05-20T04:01:26;5.67;;;5.13;;
7306;SDS011;3694;48.732;9.248;2023-05-20T04:03:51;5.93;;;5.43;;
7306;SDS011;3694;48.732;9.248;2023-05-20T04:06:17;5.30;;;4.90;;
7306;SDS011;3694;48.732;9.248;2023-05-20T04:08:42;5.93;;;5.33;;
7306;SDS011;3694;48.732;9.248;2023-05-20T04:11:08;5.37;;;4.87;;
7306;SDS011;3694;48.732;9.248;2023-05-20T04:13:33;5.83;;;5.30;;
7306;SDS011;3694;48.732;9.248;2023-05-20T04:15:59;5.90;;;5.20;;
7306;SDS011;3694;48.732;9.248;2023-05-20T04:18:25;5.30;;;4.80;;
7306;SDS011;3694;48.732;9.248;2023-05-20T04:20:53;5.83;;;5.27;;
7306;SDS011;3694;48.732;9.248;2023-05-20T04:23:20;5.27;;;4.77;;
7306;SDS011;3694;48.732;9.248;2023-05-20T04:25:45;5.00;;;4.60;;
7306;SDS011;3694;48.732;9.248;2023-05-20T04:28:12;5.07;;;4.67;;
7306;SDS011;3694;48.732;9.248;2023-05-20T04:30:40;5.63;;;4.97;;
7306;SDS011;3694;48.732;9.248;2023-05-20T04:33:06;4.80;;;4.40;;
7306;SDS011;3694;48.732;9.248;2023-05-20T04:35:32;5.07;;;4.57;;
7306;SDS011;3694;48.732;9.248;2023-05-20T04:37:59;5.10;;;4.67;;
7306;SDS011;3694;48.732;9.248;2023-05-20T04:40:25;5.53;;;5.03;;
7306;SDS011;3694;48.732;9.248;2023-05-20T04:42:51;4.60;;;4.20;;
7306;SDS011;3694;48.732;9.248;2023-05-20T04:45:17;4.93;;;4.47;;
7306;SDS011;3694;48.732;9.248;2023-05-20T04:47:42;5.33;;;4.83;;
7306;SDS011;3694;48.732;9.248;2023-05-20T04:50:10;5.33;;;4.37;;
7306;SDS011;3694;48.732;9.248;2023-05-20T04:52:37;5.07;;;4.57;;
7306;SDS011;3694;48.732;9.248;2023-05-20T04:55:06;4.97;;;4.57;;
7306;SDS011;3694;48.732;9.248;2023-05-20T04:57:34;4.67;;;4.27;;
7306;SDS011;3694;48.732;9.248;2023-05-20T05:00:02;4.80;;;4.30;;
7306;SDS011;3694;48.732;9.248;2023-05-20T05:02:31;4.73;;;4.30;;
7306;SDS011;3694;48.732;9.248;2023-05-20T05:04:57;5.40;;;4.90;;
7306;SDS011;3694;48.732;9.248;2023-05-20T05:07:23;4.87;;;4.47;;
7306;SDS011;3694;48.732;9.248;2023-05-20T05:09:48;4.57;;;4.17;;
7306;SDS011;3694;48.732;9.248;2023-05-20T05:12:14;4.60;;;4.20;;
7306;SDS011;3694;48.732;9.248;2023-05-20T05:14:40;4.43;;;4.10;;
7306;SDS011;3694;48.732;9.248;2023-05-20T05:17:05;7.30;;;5.13;;
7306;SDS011;3694;48.732;9.248;2023-05-20T05:19:31;4.60;;;4.20;;
7306;SDS011;3694;48.732;9.248;2023-05-20T05:21:56;5.00;;;4.50;;
7306;SDS011;3694;48.732;9.248;2023-05-20T05:24:22;4.83;;;4.13;;
7306;SDS011;3694;48.732;9.248;2023-05-20T05:26:48;4.43;;;4.03;;
7306;SDS011;3694;48.732;9.248;2023-05-20T05:29:18;4.17;;;3.87;;
7306;SDS011;3694;48.732;9.248;2023-05-20T05:31:43;4.23;;;3.73;;
7306;SDS011;3694;48.732;9.248;2023-05-20T05:34:09;4.30;;;3.90;;
7306;SDS011;3694;48.732;9.248;2023-05-20T05:36:34;5.37;;;4.27;;
7306;SDS011;3694;48.732;9.248;2023-05-20T05:39:00;4.63;;;4.23;;
7306;SDS011;3694;48.732;9.248;2023-05-20T05:41:25;4.10;;;3.70;;
7306;SDS011;3694;48.732;9.248;2023-05-20T05:43:51;4.27;;;3.87;;
7306;SDS011;3694;48.732;9.248;2023-05-20T05:46:16;4.17;;;3.80;;
7306;SDS011;3694;48.732;9.248;2023-05-20T05:48:42;5.93;;;4.20;;
7306;SDS011;3694;48.732;9.248;2023-05-20T05:51:12;4.30;;;3.90;;
7306;SDS011;3694;48.732;9.248;2023-05-20T05:53:38;4.23;;;3.40;;
7306;SDS011;3694;48.732;9.248;2023-05-20T05:56:04;4.40;;;3.30;;
7306;SDS011;3694;48.732;9.248;2023-05-20T05:58:30;4.03;;;3.50;;
7306;SDS011;3694;48.732;9.248;2023-05-20T06:00:58;4.10;;;3.70;;
7306;SDS011;3694;48.732;9.248;2023-05-20T06:03:23;3.63;;;3.33;;
7306;SDS011;3694;48.732;9.248;2023-05-20T06:05:49;4.13;;;3.73;;
7306;SDS011;3694;48.732;9.248;2023-05-20T06:08:15;4.00;;;3.70;;
7306;SDS011;3694;48.732;9.248;2023-05-20T06:10:40;4.30;;;3.60;;
7306;SDS011;3694;48.732;9.248;2023-05-20T06:13:05;4.53;;;4.13;;
7306;SDS011;3694;48.732;9.248;2023-05-20T06:15:31;4.03;;;3.47;;
7306;SDS011;3694;48.732;9.248;2023-05-20T06:17:56;3.53;;;3.23;;
7306;SDS011;3694;48.732;9.248;2023-05-20T06:20:22;4.93;;;3.63;;
7306;SDS011;3694;48.732;9.248;2023-05-20T06:22:48;4.33;;;3.90;;
7306;SDS011;3694;48.732;9.248;2023-05-20T06:25:13;4.23;;;3.93;;
7306;SDS011;3694;48.732;9.248;2023-05-20T06:27:39;5.17;;;3.93;;
7306;SDS011;3694;48.732;9.248;2023-05-20T06:30:05;4.13;;;3.73;;
7306;SDS011;3694;48.732;9.248;2023-05-20T06:32:31;5.27;;;3.70;;
7306;SDS011;3694;48.732;9.248;2023-05-20T06:34:56;4.50;;;4.10;;
7306;SDS011;3694;48.732;9.248;2023-05-20T06:37:22;3.83;;;3.53;;
7306;SDS011;3694;48.732;9.248;2023-05-20T06:39:51;4.53;;;3.77;;
7306;SDS011;3694;48.732;9.248;2023-05-20T06:42:18;3.97;;;3.60;;
7306;SDS011;3694;48.732;9.248;2023-05-20T06:44:45;4.23;;;3.83;;
7306;SDS011;3694;48.732;9.248;2023-05-20T06:47:12;5.63;;;5.07;;
7306;SDS011;3694;48.732;9.248;2023-05-20T06:49:39;4.03;;;3.73;;
7306;SDS011;3694;48.732;9.248;2023-05-20T06:52:06;4.10;;;3.70;;
7306;SDS011;3694;48.732;9.248;2023-05-20T06:54:31;5.70;;;3.80;;
7306;SDS011;3694;48.732;9.248;2023-05-20T06:56:59;4.50;;;3.93;;
7306;SDS011;3694;48.732;9.248;2023-05-20T06:59:25;4.57;;;3.73;;
7306;SDS011;3694;48.732;9.248;2023-05-20T07:01:50;4.20;;;3.80;;
7306;SDS011;3694;48.732;9.248;2023-05-20T07:04:16;4.70;;;4.30;;
7306;SDS011;3694;48.732;9.248;2023-05-20T07:06:41;3.83;;;3.53;;
7306;SDS011;3694;48.732;9.248;2023-05-20T07:09:07;4.17;;;3.87;;
7306;SDS011;3694;48.732;9.248;2023-05-20T07:11:33;4.20;;;3.90;;
7306;SDS011;3694;48.732;9.248;2023-05-20T07:13:58;4.60;;;3.50;;
7306;SDS011;3694;48.732;9.248;2023-05-20T07:16:24;4.07;;;3.70;;
7306;SDS011;3694;48.732;9.248;2023-05-20T07:18:49;3.90;;;3.60;;
7306;SDS011;3694;48.732;9.248;2023-05-20T07:21:15;4.30;;;3.90;;
7306;SDS011;3694;48.732;9.248;2023-05-20T07:23:41;4.30;;;3.90;;
7306;SDS011;3694;48.732;9.248;2023-05-20T07:26:07;4.47;;;3.70;;
7306;SDS011;3694;48.732;9.248;2023-05-20T07:28:32;4.23;;;3.83;;
7306;SDS011;3694;48.732;9.248;2023-05-20T07:30:59;4.10;;;3.80;;
7306;SDS011;3694;48.732;9.248;2023-05-20T07:33:25;4.63;;;3.73;;
7306;SDS011;3694;48.732;9.248;2023-05-20T07:35:50;4.03;;;3.63;;
7306;SDS011;3694;48.732;9.248;2023-05-20T07:38:18;4.00;;;3.60;;
7306;SDS011;3694;48.732;9.248;2023-05-20T07:40:43;3.80;;;3.50;;
7306;SDS011;3694;48.732;9.248;2023-05-20T07:43:09;4.33;;;3.93;;
7306;SDS011;3694;48.732;9.248;2023-05-20T07:45:35;3.97;;;3.67;;
7306;SDS011;3694;48.732;9.248;2023-05-20T07:48:01;4.60;;;3.90;;
7306;SDS011;3694;48.732;9.248;2023-05-20T07:50:26;4.20;;;3.80;;
7306;SDS011;3694;48.732;9.248;2023-05-20T07:52:52;4.00;;;3.60;;
7306;SDS011;3694;48.732;9.248;2023-05-20T07:55:18;3.90;;;3.60;;
7306;SDS011;3694;48.732;9.248;2023-05-20T07:57:43;5.13;;;4.63;;
7306;SDS011;3694;48.732;9.248;2023-05-20T08:00:09;4.60;;;4.20;;
7306;SDS011;3694;48.732;9.248;2023-05-20T08:02:36;4.03;;;3.73;;
7306;SDS011;3694;48.732;9.248;2023-05-20T08:05:01;4.00;;;3.70;;
7306;SDS011;3694;48.732;9.248;2023-05-20T08:07:27;4.73;;;4.33;;
7306;SDS011;3694;48.732;9.248;2023-05-20T08:09:52;4.00;;;3.70;;
7306;SDS011;3694;48.732;9.248;2023-05-20T08:12:18;4.23;;;3.83;;
7306;SDS011;3694;48.732;9.248;2023-05-20T08:14:44;4.10;;;3.80;;
7306;SDS011;3694;48.732;9.248;2023-05-20T08:17:09;4.67;;;4.00;;
7306;SDS011;3694;48.732;9.248;2023-05-20T08:19:35;4.60;;;4.13;;
7306;SDS011;3694;48.732;9.248;2023-05-20T08:22:02;4.40;;;4.10;;
7306;SDS011;3694;48.732;9.248;2023-05-20T08:24:27;4.63;;;4.10;;
7306;SDS011;3694;48.732;9.248;2023-05-20T08:26:53;4.13;;;3.83;;
7306;SDS011;3694;48.732;9.248;2023-05-20T08:29:19;4.80;;;4.40;;
7306;SDS011;3694;48.732;9.248;2023-05-20T08:31:44;4.73;;;3.70;;
7306;SDS011;3694;48.732;9.248;2023-05-20T08:34:10;4.63;;;4.23;;
7306;SDS011;3694;48.732;9.248;2023-05-20T08:36:35;3.70;;;3.40;;
7306;SDS011;3694;48.732;9.248;2023-05-20T08:39:01;4.10;;;3.70;;
7306;SDS011;3694;48.732;9.248;2023-05-20T08:41:26;4.17;;;3.83;;
7306;SDS011;3694;48.732;9.248;2023-05-20T08:43:52;4.40;;;4.00;;
7306;SDS011;3694;48.732;9.248;2023-05-20T08:46:18;3.70;;;3.50;;
7306;SDS011;3694;48.732;9.248;2023-05-20T08:48:46;4.53;;;3.83;;
7306;SDS011;3694;48.732;9.248;2023-05-20T08:51:12;4.00;;;3.70;;
7306;SDS011;3694;48.732;9.248;2023-05-20T08:53:40;4.20;;;3.80;;
7306;SDS011;3694;48.732;9.248;2023-05-20T08:56:06;4.20;;;3.80;;
7306;SDS011;3694;48.732;9.248;2023-05-20T08:58:33;4.40;;;4.00;;
7306;SDS011;3694;48.732;9.248;2023-05-20T09:00:59;3.80;;;3.50;;
7306;SDS011;3694;48.732;9.248;2023-05-20T09:03:25;3.73;;;3.43;;
7306;SDS011;3694;48.732;9.248;2023-05-20T09:06:01;4.10;;;3.70;;
7306;SDS011;3694;48.732;9.248;2023-05-20T09:08:28;3.80;;;3.37;;
7306;SDS011;3694;48.732;9.248;2023-05-20T09:10:55;5.20;;;3.60;;
7306;SDS011;3694;48.732;9.248;2023-05-20T09:13:22;4.40;;;4.00;;
7306;SDS011;3694;48.732;9.248;2023-05-20T09:15:48;9.60;;;6.23;;
7306;SDS011;3694;48.732;9.248;2023-05-20T09:18:13;5.73;;;4.30;;
7306;SDS011;3694;48.732;9.248;2023-05-20T09:20:39;5.53;;;4.23;;
7306;SDS011;3694;48.732;9.248;2023-05-20T09:23:05;5.13;;;4.60;;
7306;SDS011;3694;48.732;9.248;2023-05-20T09:25:33;3.47;;;3.17;;
7306;SDS011;3694;48.732;9.248;2023-05-20T09:27:59;3.70;;;3.40;;
7306;SDS011;3694;48.732;9.248;2023-05-20T09:30:25;4.20;;;3.80;;
7306;SDS011;3694;48.732;9.248;2023-05-20T09:35:22;3.53;;;3.13;;
7306;SDS011;3694;48.732;9.248;2023-05-20T09:37:52;3.50;;;3.20;;
7306;SDS011;3694;48.732;9.248;2023-05-20T09:40:23;3.10;;;2.90;;
7306;SDS011;3694;48.732;9.248;2023-05-20T09:45:28;3.15;;;2.95;;
7306;SDS011;3694;48.732;9.248;2023-05-20T09:47:54;3.47;;;3.20;;
7306;SDS011;3694;48.732;9.248;2023-05-20T09:50:21;3.38;;;3.10;;
7306;SDS011;3694;48.732;9.248;2023-05-20T09:52:48;2.80;;;2.60;;
7306;SDS011;3694;48.732;9.248;2023-05-20T09:55:15;3.90;;;3.60;;
7306;SDS011;3694;48.732;9.248;2023-05-20T09:57:42;3.67;;;3.38;;
7306;SDS011;3694;48.732;9.248;2023-05-20T10:00:07;3.60;;;3.30;;
7306;SDS011;3694;48.732;9.248;2023-05-20T10:02:34;3.27;;;2.97;;
7306;SDS011;3694;48.732;9.248;2023-05-20T10:05:01;3.10;;;2.90;;
7306;SDS011;3694;48.732;9.248;2023-05-20T10:10:26;3.50;;;3.20;;
7306;SDS011;3694;48.732;9.248;2023-05-20T10:13:11;3.67;;;3.10;;
7306;SDS011;3694;48.732;9.248;2023-05-20T10:21:00;4.30;;;3.47;;
7306;SDS011;3694;48.732;9.248;2023-05-20T10:23:29;4.77;;;3.83;;
7306;SDS011;3694;48.732;9.248;2023-05-20T10:25:56;3.60;;;3.30;;
7306;SDS011;3694;48.732;9.248;2023-05-20T10:28:29;3.40;;;3.20;;
7306;SDS011;3694;48.732;9.248;2023-05-20T10:30:57;3.83;;;3.53;;
7306;SDS011;3694;48.732;9.248;2023-05-20T10:33:24;3.67;;;3.37;;
7306;SDS011;3694;48.732;9.248;2023-05-20T10:35:51;3.87;;;3.57;;
7306;SDS011;3694;48.732;9.248;2023-05-20T10:38:17;4.10;;;3.80;;
7306;SDS011;3694;48.732;9.248;2023-05-20T10:40:44;4.10;;;3.70;;
7306;SDS011;3694;48.732;9.248;2023-05-20T10:43:16;4.50;;;4.10;;
7306;SDS011;3694;48.732;9.248;2023-05-20T10:45:51;3.77;;;3.47;;
7306;SDS011;3694;48.732;9.248;2023-05-20T10:48:19;3.50;;;3.20;;
7306;SDS011;3694;48.732;9.248;2023-05-20T10:50:48;2.80;;;2.60;;
7306;SDS011;3694;48.732;9.248;2023-05-20T10:53:14;2.90;;;2.70;;
7306;SDS011;3694;48.732;9.248;2023-05-20T10:55:40;2.90;;;2.70;;
7306;SDS011;3694;48.732;9.248;2023-05-20T10:58:12;3.20;;;2.90;;
7306;SDS011;3694;48.732;9.248;2023-05-20T11:00:38;2.90;;;2.70;;
7306;SDS011;3694;48.732;9.248;2023-05-20T11:03:05;2.90;;;2.70;;
7306;SDS011;3694;48.732;9.248;2023-05-20T11:05:31;2.90;;;2.67;;
7306;SDS011;3694;48.732;9.248;2023-05-20T11:08:04;3.10;;;2.80;;
7306;SDS011;3694;48.732;9.248;2023-05-20T11:10:32;3.30;;;3.00;;
7306;SDS011;3694;48.732;9.248;2023-05-20T11:12:59;3.30;;;3.00;;
7306;SDS011;3694;48.732;9.248;2023-05-20T11:15:26;4.67;;;3.13;;
7306;SDS011;3694;48.732;9.248;2023-05-20T11:17:56;3.97;;;2.80;;
7306;SDS011;3694;48.732;9.248;2023-05-20T11:20:24;3.20;;;3.00;;
7306;SDS011;3694;48.732;9.248;2023-05-20T11:22:51;3.37;;;2.80;;
7306;SDS011;3694;48.732;9.248;2023-05-20T11:25:17;3.17;;;2.97;;
7306;SDS011;3694;48.732;9.248;2023-05-20T11:27:44;3.57;;;3.27;;
7306;SDS011;3694;48.732;9.248;2023-05-20T11:30:10;3.07;;;2.77;;
7306;SDS011;3694;48.732;9.248;2023-05-20T11:32:40;3.07;;;2.87;;
7306;SDS011;3694;48.732;9.248;2023-05-20T11:35:22;4.27;;;3.10;;
7306;SDS011;3694;48.732;9.248;2023-05-20T11:37:55;3.10;;;2.80;;
7306;SDS011;3694;48.732;9.248;2023-05-20T11:40:29;3.83;;;2.80;;
7306;SDS011;3694;48.732;9.248;2023-05-20T11:42:56;3.20;;;2.90;;
7306;SDS011;3694;48.732;9.248;2023-05-20T11:45:23;3.70;;;3.10;;
7306;SDS011;3694;48.732;9.248;2023-05-20T11:47:59;2.80;;;2.60;;
7306;SDS011;3694;48.732;9.248;2023-05-20T11:50:26;3.30;;;3.07;;
7306;SDS011;3694;48.732;9.248;2023-05-20T11:53:01;3.03;;;2.80;;
7306;SDS011;3694;48.732;9.248;2023-05-20T11:55:27;3.23;;;3.03;;
7306;SDS011;3694;48.732;9.248;2023-05-20T11:57:53;2.90;;;2.70;;
7306;SDS011;3694;48.732;9.248;2023-05-20T12:00:20;3.90;;;3.20;;
7306;SDS011;3694;48.732;9.248;2023-05-20T12:02:46;2.70;;;2.50;;
7306;SDS011;3694;48.732;9.248;2023-05-20T12:05:11;2.70;;;2.50;;
7306;SDS011;3694;48.732;9.248;2023-05-20T12:07:37;3.00;;;2.80;;
7306;SDS011;3694;48.732;9.248;2023-05-20T12:10:03;3.10;;;2.90;;
7306;SDS011;3694;48.732;9.248;2023-05-20T12:12:29;3.20;;;2.90;;
7306;SDS011;3694;48.732;9.248;2023-05-20T12:14:55;4.83;;;3.27;;
7306;SDS011;3694;48.732;9.248;2023-05-20T12:17:21;3.37;;;2.90;;
7306;SDS011;3694;48.732;9.248;2023-05-20T12:19:46;2.90;;;2.70;;
7306;SDS011;3694;48.732;9.248;2023-05-20T12:22:12;3.10;;;2.90;;
7306;SDS011;3694;48.732;9.248;2023-05-20T12:24:37;2.42;;;2.33;;
7306;SDS011;3694;48.732;9.248;2023-05-20T12:27:03;4.38;;;2.75;;
7306;SDS011;3694;48.732;9.248;2023-05-20T12:29:30;2.58;;;2.38;;
7306;SDS011;3694;48.732;9.248;2023-05-20T12:31:56;2.35;;;2.25;;
7306;SDS011;3694;48.732;9.248;2023-05-20T12:34:21;2.38;;;2.28;;
7306;SDS011;3694;48.732;9.248;2023-05-20T12:36:47;2.90;;;2.70;;
7306;SDS011;3694;48.732;9.248;2023-05-20T12:39:12;3.17;;;2.97;;
7306;SDS011;3694;48.732;9.248;2023-05-20T12:41:41;3.00;;;2.80;;
7306;SDS011;3694;48.732;9.248;2023-05-20T12:44:07;3.23;;;2.93;;
7306;SDS011;3694;48.732;9.248;2023-05-20T12:46:33;2.83;;;2.53;;
7306;SDS011;3694;48.732;9.248;2023-05-20T12:48:59;2.77;;;2.53;;
7306;SDS011;3694;48.732;9.248;2023-05-20T12:51:25;2.70;;;2.50;;
7306;SDS011;3694;48.732;9.248;2023-05-20T12:53:51;2.87;;;2.60;;
7306;SDS011;3694;48.732;9.248;2023-05-20T12:56:17;2.70;;;2.50;;
7306;SDS011;3694;48.732;9.248;2023-05-20T12:58:43;2.70;;;2.50;;
7306;SDS011;3694;48.732;9.248;2023-05-20T13:01:09;2.90;;;2.70;;
7306;SDS011;3694;48.732;9.248;2023-05-20T13:03:34;2.70;;;2.50;;
7306;SDS011;3694;48.732;9.248;2023-05-20T13:06:00;2.50;;;2.30;;
7306;SDS011;3694;48.732;9.248;2023-05-20T13:08:26;2.63;;;2.43;;
7306;SDS011;3694;48.732;9.248;2023-05-20T13:10:55;2.45;;;2.25;;
7306;SDS011;3694;48.732;9.248;2023-05-20T13:13:20;2.90;;;2.65;;
7306;SDS011;3694;48.732;9.248;2023-05-20T13:15:49;4.10;;;2.45;;
7306;SDS011;3694;48.732;9.248;2023-05-20T13:18:15;3.95;;;2.63;;
7306;SDS011;3694;48.732;9.248;2023-05-20T13:20:44;4.83;;;2.80;;
7306;SDS011;3694;48.732;9.248;2023-05-20T13:23:10;2.80;;;2.60;;
7306;SDS011;3694;48.732;9.248;2023-05-20T13:25:36;3.00;;;2.80;;
7306;SDS011;3694;48.732;9.248;2023-05-20T13:28:04;2.97;;;2.67;;
7306;SDS011;3694;48.732;9.248;2023-05-20T13:30:30;3.57;;;3.20;;
7306;SDS011;3694;48.732;9.248;2023-05-20T13:32:56;3.00;;;2.80;;
7306;SDS011;3694;48.732;9.248;2023-05-20T13:35:22;3.90;;;3.30;;
7306;SDS011;3694;48.732;9.248;2023-05-20T13:37:47;2.90;;;2.70;;
7306;SDS011;3694;48.732;9.248;2023-05-20T13:40:13;3.60;;;2.73;;
7306;SDS011;3694;48.732;9.248;2023-05-20T13:42:39;2.97;;;2.60;;
7306;SDS011;3694;48.732;9.248;2023-05-20T13:45:04;2.80;;;2.60;;
7306;SDS011;3694;48.732;9.248;2023-05-20T13:47:31;2.83;;;2.63;;
7306;SDS011;3694;48.732;9.248;2023-05-20T13:49:56;2.47;;;2.27;;
7306;SDS011;3694;48.732;9.248;2023-05-20T13:52:22;2.63;;;2.43;;
7306;SDS011;3694;48.732;9.248;2023-05-20T13:54:47;2.83;;;2.63;;
7306;SDS011;3694;48.732;9.248;2023-05-20T13:57:13;3.07;;;2.83;;
7306;SDS011;3694;48.732;9.248;2023-05-20T13:59:39;2.92;;;2.70;;
7306;SDS011;3694;48.732;9.248;2023-05-20T14:02:05;2.70;;;2.50;;
7306;SDS011;3694;48.732;9.248;2023-05-20T14:04:31;3.50;;;2.67;;
7306;SDS011;3694;48.732;9.248;2023-05-20T14:07:02;2.93;;;2.63;;
7306;SDS011;3694;48.732;9.248;2023-05-20T14:09:28;2.83;;;2.63;;
7306;SDS011;3694;48.732;9.248;2023-05-20T14:11:54;3.43;;;2.83;;
7306;SDS011;3694;48.732;9.248;2023-05-20T14:14:19;2.77;;;2.57;;
7306;SDS011;3694;48.732;9.248;2023-05-20T14:16:45;2.80;;;2.60;;
7306;SDS011;3694;48.732;9.248;2023-05-20T14:19:11;2.70;;;2.50;;
7306;SDS011;3694;48.732;9.248;2023-05-20T14:21:36;2.67;;;2.47;;
7306;SDS011;3694;48.732;9.248;2023-05-20T14:24:02;2.87;;;2.60;;
7306;SDS011;3694;48.732;9.248;2023-05-20T14:26:31;2.93;;;2.63;;
7306;SDS011;3694;48.732;9.248;2023-05-20T14:28:57;3.10;;;2.80;;
7306;SDS011;3694;48.732;9.248;2023-05-20T14:31:22;2.20;;;2.10;;
7306;SDS011;3694;48.732;9.248;2023-05-20T14:33:48;2.90;;;2.10;;
7306;SDS011;3694;48.732;9.248;2023-05-20T14:36:14;2.43;;;2.30;;
7306;SDS011;3694;48.732;9.248;2023-05-20T14:38:39;2.80;;;2.60;;
7306;SDS011;3694;48.732;9.248;2023-05-20T14:41:05;2.80;;;2.60;;
7306;SDS011;3694;48.732;9.248;2023-05-20T14:43:30;2.80;;;2.60;;
7306;SDS011;3694;48.732;9.248;2023-05-20T14:45:56;2.63;;;2.43;;
7306;SDS011;3694;48.732;9.248;2023-05-20T14:48:22;3.07;;;2.87;;
7306;SDS011;3694;48.732;9.248;2023-05-20T14:50:47;2.77;;;2.57;;
7306;SDS011;3694;48.732;9.248;2023-05-20T14:53:13;2.70;;;2.50;;
7306;SDS011;3694;48.732;9.248;2023-05-20T14:55:39;2.80;;;2.60;;
7306;SDS011;3694;48.732;9.248;2023-05-20T14:58:05;4.23;;;3.13;;
7306;SDS011;3694;48.732;9.248;2023-05-20T15:00:30;2.90;;;2.70;;
7306;SDS011;3694;48.732;9.248;2023-05-20T15:02:56;3.20;;;3.00;;
7306;SDS011;3694;48.732;9.248;2023-05-20T15:05:22;2.67;;;2.47;;
7306;SDS011;3694;48.732;9.248;2023-05-20T15:07:48;3.03;;;2.83;;
7306;SDS011;3694;48.732;9.248;2023-05-20T15:10:14;3.00;;;2.70;;
7306;SDS011;3694;48.732;9.248;2023-05-20T15:12:40;2.60;;;2.40;;
7306;SDS011;3694;48.732;9.248;2023-05-20T15:15:06;2.70;;;2.50;;
7306;SDS011;3694;48.732;9.248;2023-05-20T15:17:33;4.57;;;2.70;;
7306;SDS011;3694;48.732;9.248;2023-05-20T15:19:58;2.97;;;2.77;;
7306;SDS011;3694;48.732;9.248;2023-05-20T15:22:24;3.07;;;2.80;;
7306;SDS011;3694;48.732;9.248;2023-05-20T15:24:49;2.87;;;2.50;;